sensor_id;sensor_type;location;lat;lon;timestamp;P1;durP1;ratioP1;P2;durP2;ratioP2
8331;SDS011;4203;48.144;14.118;2023-03-30T00:00:45;15.37;;;13.77;;
8331;SDS011;4203;48.144;14.118;2023-03-30T00:03:12;16.00;;;14.37;;
8331;SDS011;4203;48.144;14.118;2023-03-30T00:05:43;16.67;;;14.93;;
8331;SDS011;4203;48.144;14.118;2023-03-30T00:08:10;18.63;;;15.43;;
8331;SDS011;4203;48.144;14.118;2023-03-30T00:10:38;18.37;;;16.33;;
8331;SDS011;4203;48.144;14.118;2023-03-30T00:13:08;19.40;;;16.57;;
8331;SDS011;4203;48.144;14.118;2023-03-30T00:15:37;18.10;;;16.23;;
8331;SDS011;4203;48.144;14.118;2023-03-30T00:18:05;17.70;;;15.90;;
8331;SDS011;4203;48.144;14.118;2023-03-30T00:20:33;20.53;;;17.80;;
8331;SDS011;4203;48.144;14.118;2023-03-30T00:23:01;21.90;;;17.67;;
8331;SDS011;4203;48.144;14.118;2023-03-30T00:25:28;20.57;;;18.37;;
8331;SDS011;4203;48.144;14.118;2023-03-30T00:27:55;23.43;;;17.97;;
8331;SDS011;4203;48.144;14.118;2023-03-30T00:30:22;21.57;;;19.23;;
8331;SDS011;4203;48.144;14.118;2023-03-30T00:32:50;22.90;;;18.90;;
8331;SDS011;4203;48.144;14.118;2023-03-30T00:35:19;20.13;;;17.93;;
8331;SDS011;4203;48.144;14.118;2023-03-30T00:37:46;21.27;;;18.70;;
8331;SDS011;4203;48.144;14.118;2023-03-30T00:40:19;21.60;;;17.87;;
8331;SDS011;4203;48.144;14.118;2023-03-30T00:42:47;18.27;;;16.37;;
8331;SDS011;4203;48.144;14.118;2023-03-30T00:45:16;19.07;;;17.07;;
8331;SDS011;4203;48.144;14.118;2023-03-30T00:47:47;18.67;;;16.77;;
8331;SDS011;4203;48.144;14.118;2023-03-30T00:50:19;19.27;;;17.07;;
8331;SDS011;4203;48.144;14.118;2023-03-30T00:52:49;17.57;;;15.67;;
8331;SDS011;4203;48.144;14.118;2023-03-30T00:55:21;18.07;;;16.27;;
8331;SDS011;4203;48.144;14.118;2023-03-30T00:57:49;16.00;;;14.40;;
8331;SDS011;4203;48.144;14.118;2023-03-30T01:00:17;17.17;;;15.57;;
8331;SDS011;4203;48.144;14.118;2023-03-30T01:02:47;16.43;;;14.47;;
8331;SDS011;4203;48.144;14.118;2023-03-30T01:05:21;16.57;;;14.83;;
8331;SDS011;4203;48.144;14.118;2023-03-30T01:07:49;19.10;;;15.93;;
8331;SDS011;4203;48.144;14.118;2023-03-30T01:10:17;17.90;;;16.10;;
8331;SDS011;4203;48.144;14.118;2023-03-30T01:12:45;15.27;;;13.70;;
8331;SDS011;4203;48.144;14.118;2023-03-30T01:15:13;16.70;;;14.90;;
8331;SDS011;4203;48.144;14.118;2023-03-30T01:17:52;17.17;;;15.37;;
8331;SDS011;4203;48.144;14.118;2023-03-30T01:26:52;16.43;;;14.73;;
8331;SDS011;4203;48.144;14.118;2023-03-30T01:29:28;17.43;;;15.50;;
8331;SDS011;4203;48.144;14.118;2023-03-30T01:32:13;16.63;;;14.90;;
8331;SDS011;4203;48.144;14.118;2023-03-30T01:35:00;15.37;;;13.77;;
8331;SDS011;4203;48.144;14.118;2023-03-30T01:40:42;15.67;;;13.93;;
8331;SDS011;4203;48.144;14.118;2023-03-30T01:43:14;15.43;;;13.93;;
8331;SDS011;4203;48.144;14.118;2023-03-30T01:45:45;15.90;;;14.23;;
8331;SDS011;4203;48.144;14.118;2023-03-30T01:48:20;16.13;;;14.57;;
8331;SDS011;4203;48.144;14.118;2023-03-30T01:50:58;17.17;;;15.37;;
8331;SDS011;4203;48.144;14.118;2023-03-30T01:53:30;17.67;;;15.80;;
8331;SDS011;4203;48.144;14.118;2023-03-30T01:56:10;16.30;;;14.60;;
8331;SDS011;4203;48.144;14.118;2023-03-30T01:58:42;18.80;;;16.17;;
8331;SDS011;4203;48.144;14.118;2023-03-30T02:01:13;15.70;;;14.10;;
8331;SDS011;4203;48.144;14.118;2023-03-30T02:03:45;16.33;;;14.63;;
8331;SDS011;4203;48.144;14.118;2023-03-30T02:06:19;17.83;;;15.83;;
8331;SDS011;4203;48.144;14.118;2023-03-30T02:08:50;19.87;;;15.20;;
8331;SDS011;4203;48.144;14.118;2023-03-30T02:11:21;17.83;;;15.93;;
8331;SDS011;4203;48.144;14.118;2023-03-30T02:13:52;16.50;;;14.73;;
8331;SDS011;4203;48.144;14.118;2023-03-30T02:16:23;16.10;;;14.50;;
8331;SDS011;4203;48.144;14.118;2023-03-30T02:18:56;16.20;;;14.50;;
8331;SDS011;4203;48.144;14.118;2023-03-30T02:21:24;15.67;;;14.10;;
8331;SDS011;4203;48.144;14.118;2023-03-30T02:23:52;16.63;;;14.93;;
8331;SDS011;4203;48.144;14.118;2023-03-30T02:26:22;18.77;;;14.90;;
8331;SDS011;4203;48.144;14.118;2023-03-30T02:28:51;18.83;;;16.40;;
8331;SDS011;4203;48.144;14.118;2023-03-30T02:31:20;20.07;;;15.10;;
8331;SDS011;4203;48.144;14.118;2023-03-30T02:33:52;15.73;;;14.23;;
8331;SDS011;4203;48.144;14.118;2023-03-30T02:36:40;17.57;;;15.67;;
8331;SDS011;4203;48.144;14.118;2023-03-30T02:39:33;17.17;;;15.40;;
8331;SDS011;4203;48.144;14.118;2023-03-30T02:42:17;15.57;;;14.03;;
8331;SDS011;4203;48.144;14.118;2023-03-30T02:45:02;17.10;;;15.40;;
8331;SDS011;4203;48.144;14.118;2023-03-30T02:47:42;18.80;;;16.23;;
8331;SDS011;4203;48.144;14.118;2023-03-30T02:50:16;21.00;;;17.67;;
8331;SDS011;4203;48.144;14.118;2023-03-30T02:52:53;23.20;;;19.30;;
8331;SDS011;4203;48.144;14.118;2023-03-30T02:55:24;20.07;;;17.63;;
8331;SDS011;4203;48.144;14.118;2023-03-30T02:58:02;19.43;;;17.37;;
8331;SDS011;4203;48.144;14.118;2023-03-30T03:00:37;19.30;;;17.27;;
8331;SDS011;4203;48.144;14.118;2023-03-30T03:03:10;18.97;;;16.80;;
8331;SDS011;4203;48.144;14.118;2023-03-30T03:05:42;19.53;;;17.37;;
8331;SDS011;4203;48.144;14.118;2023-03-30T03:08:12;22.17;;;19.27;;
8331;SDS011;4203;48.144;14.118;2023-03-30T03:10:39;20.00;;;17.37;;
8331;SDS011;4203;48.144;14.118;2023-03-30T03:13:08;20.97;;;18.77;;
8331;SDS011;4203;48.144;14.118;2023-03-30T03:15:36;24.60;;;20.13;;
8331;SDS011;4203;48.144;14.118;2023-03-30T03:18:04;22.40;;;19.73;;
8331;SDS011;4203;48.144;14.118;2023-03-30T03:20:31;22.07;;;19.63;;
8331;SDS011;4203;48.144;14.118;2023-03-30T03:22:58;20.90;;;17.83;;
8331;SDS011;4203;48.144;14.118;2023-03-30T03:25:25;21.70;;;19.40;;
8331;SDS011;4203;48.144;14.118;2023-03-30T03:27:53;22.47;;;19.60;;
8331;SDS011;4203;48.144;14.118;2023-03-30T03:30:21;24.70;;;20.23;;
8331;SDS011;4203;48.144;14.118;2023-03-30T03:32:48;22.03;;;19.63;;
8331;SDS011;4203;48.144;14.118;2023-03-30T03:35:16;25.57;;;20.03;;
8331;SDS011;4203;48.144;14.118;2023-03-30T03:37:43;22.23;;;19.33;;
8331;SDS011;4203;48.144;14.118;2023-03-30T03:40:10;25.13;;;20.53;;
8331;SDS011;4203;48.144;14.118;2023-03-30T03:42:38;25.70;;;22.90;;
8331;SDS011;4203;48.144;14.118;2023-03-30T03:45:06;23.60;;;21.10;;
8331;SDS011;4203;48.144;14.118;2023-03-30T03:47:35;21.00;;;18.80;;
8331;SDS011;4203;48.144;14.118;2023-03-30T03:50:02;25.37;;;20.80;;
8331;SDS011;4203;48.144;14.118;2023-03-30T03:52:33;23.70;;;19.67;;
8331;SDS011;4203;48.144;14.118;2023-03-30T03:55:00;23.03;;;18.70;;
8331;SDS011;4203;48.144;14.118;2023-03-30T03:57:27;21.50;;;19.20;;
8331;SDS011;4203;48.144;14.118;2023-03-30T03:59:54;22.20;;;19.87;;
8331;SDS011;4203;48.144;14.118;2023-03-30T04:02:23;20.17;;;17.93;;
8331;SDS011;4203;48.144;14.118;2023-03-30T04:04:52;20.13;;;17.93;;
8331;SDS011;4203;48.144;14.118;2023-03-30T04:07:19;19.20;;;17.13;;
8331;SDS011;4203;48.144;14.118;2023-03-30T04:09:49;21.30;;;18.97;;
8331;SDS011;4203;48.144;14.118;2023-03-30T04:12:16;22.37;;;19.70;;
8331;SDS011;4203;48.144;14.118;2023-03-30T04:14:44;23.93;;;20.50;;
8331;SDS011;4203;48.144;14.118;2023-03-30T04:17:11;22.10;;;19.57;;
8331;SDS011;4203;48.144;14.118;2023-03-30T04:19:39;28.27;;;21.33;;
8331;SDS011;4203;48.144;14.118;2023-03-30T04:22:08;24.83;;;21.03;;
8331;SDS011;4203;48.144;14.118;2023-03-30T04:24:37;23.03;;;19.27;;
8331;SDS011;4203;48.144;14.118;2023-03-30T04:27:05;22.97;;;19.87;;
8331;SDS011;4203;48.144;14.118;2023-03-30T04:29:33;23.67;;;20.90;;
8331;SDS011;4203;48.144;14.118;2023-03-30T04:32:04;25.10;;;21.97;;
8331;SDS011;4203;48.144;14.118;2023-03-30T04:34:32;24.60;;;20.40;;
8331;SDS011;4203;48.144;14.118;2023-03-30T04:36:59;22.17;;;19.77;;
8331;SDS011;4203;48.144;14.118;2023-03-30T04:39:29;23.83;;;21.27;;
8331;SDS011;4203;48.144;14.118;2023-03-30T04:41:56;23.67;;;20.97;;
8331;SDS011;4203;48.144;14.118;2023-03-30T04:44:26;24.97;;;21.13;;
8331;SDS011;4203;48.144;14.118;2023-03-30T04:46:54;23.13;;;20.17;;
8331;SDS011;4203;48.144;14.118;2023-03-30T04:52:43;23.83;;;19.13;;
8331;SDS011;4203;48.144;14.118;2023-03-30T04:55:12;23.23;;;20.33;;
8331;SDS011;4203;48.144;14.118;2023-03-30T04:57:39;21.50;;;19.20;;
8331;SDS011;4203;48.144;14.118;2023-03-30T05:00:07;23.77;;;21.17;;
8331;SDS011;4203;48.144;14.118;2023-03-30T05:02:36;25.57;;;19.87;;
8331;SDS011;4203;48.144;14.118;2023-03-30T05:05:03;22.30;;;19.60;;
8331;SDS011;4203;48.144;14.118;2023-03-30T05:07:31;22.67;;;18.73;;
8331;SDS011;4203;48.144;14.118;2023-03-30T05:09:58;21.30;;;19.00;;
8331;SDS011;4203;48.144;14.118;2023-03-30T05:12:27;23.47;;;20.27;;
8331;SDS011;4203;48.144;14.118;2023-03-30T05:14:54;21.50;;;18.77;;
8331;SDS011;4203;48.144;14.118;2023-03-30T05:17:21;20.47;;;17.57;;
8331;SDS011;4203;48.144;14.118;2023-03-30T05:19:48;20.80;;;18.17;;
8331;SDS011;4203;48.144;14.118;2023-03-30T05:22:15;21.07;;;17.47;;
8331;SDS011;4203;48.144;14.118;2023-03-30T05:24:42;18.90;;;16.90;;
8331;SDS011;4203;48.144;14.118;2023-03-30T05:27:09;22.73;;;19.60;;
8331;SDS011;4203;48.144;14.118;2023-03-30T05:29:39;19.57;;;17.47;;
8331;SDS011;4203;48.144;14.118;2023-03-30T05:32:06;21.50;;;18.40;;
8331;SDS011;4203;48.144;14.118;2023-03-30T05:34:33;21.60;;;19.33;;
8331;SDS011;4203;48.144;14.118;2023-03-30T05:37:01;21.97;;;19.67;;
8331;SDS011;4203;48.144;14.118;2023-03-30T05:39:28;24.60;;;20.33;;
8331;SDS011;4203;48.144;14.118;2023-03-30T05:41:55;23.77;;;21.17;;
8331;SDS011;4203;48.144;14.118;2023-03-30T05:44:22;21.50;;;19.27;;
8331;SDS011;4203;48.144;14.118;2023-03-30T05:46:51;23.57;;;20.20;;
8331;SDS011;4203;48.144;14.118;2023-03-30T05:49:18;24.80;;;21.23;;
8331;SDS011;4203;48.144;14.118;2023-03-30T05:51:46;21.87;;;19.50;;
8331;SDS011;4203;48.144;14.118;2023-03-30T05:54:13;20.40;;;18.27;;
8331;SDS011;4203;48.144;14.118;2023-03-30T05:56:40;22.83;;;19.90;;
8331;SDS011;4203;48.144;14.118;2023-03-30T05:59:07;24.20;;;21.60;;
8331;SDS011;4203;48.144;14.118;2023-03-30T06:01:36;26.17;;;22.80;;
8331;SDS011;4203;48.144;14.118;2023-03-30T06:04:05;28.80;;;24.57;;
8331;SDS011;4203;48.144;14.118;2023-03-30T06:06:33;29.87;;;24.70;;
8331;SDS011;4203;48.144;14.118;2023-03-30T06:09:00;31.27;;;24.90;;
8331;SDS011;4203;48.144;14.118;2023-03-30T06:11:28;31.63;;;23.53;;
8331;SDS011;4203;48.144;14.118;2023-03-30T06:13:55;29.23;;;25.40;;
8331;SDS011;4203;48.144;14.118;2023-03-30T06:16:23;26.87;;;23.77;;
8331;SDS011;4203;48.144;14.118;2023-03-30T06:18:50;26.73;;;23.80;;
8331;SDS011;4203;48.144;14.118;2023-03-30T06:21:19;28.67;;;24.80;;
8331;SDS011;4203;48.144;14.118;2023-03-30T06:23:46;27.50;;;24.20;;
8331;SDS011;4203;48.144;14.118;2023-03-30T06:26:13;27.50;;;24.53;;
8331;SDS011;4203;48.144;14.118;2023-03-30T06:28:40;25.93;;;23.00;;
8331;SDS011;4203;48.144;14.118;2023-03-30T06:31:08;26.07;;;23.33;;
8331;SDS011;4203;48.144;14.118;2023-03-30T06:33:35;25.33;;;22.60;;
8331;SDS011;4203;48.144;14.118;2023-03-30T06:36:03;23.17;;;20.80;;
8331;SDS011;4203;48.144;14.118;2023-03-30T06:38:36;26.73;;;22.17;;
8331;SDS011;4203;48.144;14.118;2023-03-30T06:41:03;26.07;;;22.00;;
8331;SDS011;4203;48.144;14.118;2023-03-30T06:43:34;24.60;;;21.83;;
8331;SDS011;4203;48.144;14.118;2023-03-30T06:46:02;22.97;;;20.57;;
8331;SDS011;4203;48.144;14.118;2023-03-30T06:48:30;24.67;;;20.27;;
8331;SDS011;4203;48.144;14.118;2023-03-30T06:50:57;23.73;;;21.23;;
8331;SDS011;4203;48.144;14.118;2023-03-30T06:53:24;26.30;;;21.93;;
8331;SDS011;4203;48.144;14.118;2023-03-30T06:55:54;27.07;;;22.47;;
8331;SDS011;4203;48.144;14.118;2023-03-30T06:58:23;28.37;;;22.07;;
8331;SDS011;4203;48.144;14.118;2023-03-30T07:00:51;27.13;;;22.57;;
8331;SDS011;4203;48.144;14.118;2023-03-30T07:03:18;33.60;;;23.17;;
8331;SDS011;4203;48.144;14.118;2023-03-30T07:05:46;31.10;;;22.93;;
8331;SDS011;4203;48.144;14.118;2023-03-30T07:08:14;25.50;;;22.80;;
8331;SDS011;4203;48.144;14.118;2023-03-30T07:10:41;25.10;;;22.47;;
8331;SDS011;4203;48.144;14.118;2023-03-30T07:13:10;29.13;;;24.13;;
8331;SDS011;4203;48.144;14.118;2023-03-30T07:15:37;32.23;;;23.23;;
8331;SDS011;4203;48.144;14.118;2023-03-30T07:18:04;26.07;;;22.27;;
8331;SDS011;4203;48.144;14.118;2023-03-30T07:20:32;29.67;;;22.97;;
8331;SDS011;4203;48.144;14.118;2023-03-30T07:23:00;30.23;;;23.87;;
8331;SDS011;4203;48.144;14.118;2023-03-30T07:25:27;28.53;;;23.03;;
8331;SDS011;4203;48.144;14.118;2023-03-30T07:27:54;27.80;;;23.73;;
8331;SDS011;4203;48.144;14.118;2023-03-30T07:30:23;31.13;;;23.73;;
8331;SDS011;4203;48.144;14.118;2023-03-30T07:32:50;26.70;;;23.47;;
8331;SDS011;4203;48.144;14.118;2023-03-30T07:35:17;27.50;;;23.37;;
8331;SDS011;4203;48.144;14.118;2023-03-30T07:37:44;28.80;;;24.23;;
8331;SDS011;4203;48.144;14.118;2023-03-30T07:40:12;27.83;;;23.70;;
8331;SDS011;4203;48.144;14.118;2023-03-30T07:42:39;31.33;;;23.23;;
8331;SDS011;4203;48.144;14.118;2023-03-30T07:45:07;30.97;;;23.93;;
8331;SDS011;4203;48.144;14.118;2023-03-30T07:47:37;32.50;;;24.70;;
8331;SDS011;4203;48.144;14.118;2023-03-30T07:50:05;27.83;;;24.83;;
8331;SDS011;4203;48.144;14.118;2023-03-30T07:52:33;30.67;;;25.27;;
8331;SDS011;4203;48.144;14.118;2023-03-30T07:55:02;32.10;;;25.80;;
8331;SDS011;4203;48.144;14.118;2023-03-30T07:57:29;29.00;;;25.30;;
8331;SDS011;4203;48.144;14.118;2023-03-30T07:59:56;30.43;;;25.30;;
8331;SDS011;4203;48.144;14.118;2023-03-30T08:02:23;27.47;;;23.93;;
8331;SDS011;4203;48.144;14.118;2023-03-30T08:04:52;26.13;;;23.33;;
8331;SDS011;4203;48.144;14.118;2023-03-30T08:07:19;27.17;;;23.70;;
8331;SDS011;4203;48.144;14.118;2023-03-30T08:09:46;31.27;;;25.07;;
8331;SDS011;4203;48.144;14.118;2023-03-30T08:12:14;27.53;;;23.90;;
8331;SDS011;4203;48.144;14.118;2023-03-30T08:14:41;31.30;;;24.03;;
8331;SDS011;4203;48.144;14.118;2023-03-30T08:17:08;37.70;;;30.97;;
8331;SDS011;4203;48.144;14.118;2023-03-30T08:19:35;30.90;;;27.60;;
8331;SDS011;4203;48.144;14.118;2023-03-30T08:22:03;32.80;;;26.67;;
8331;SDS011;4203;48.144;14.118;2023-03-30T08:24:31;35.53;;;28.80;;
8331;SDS011;4203;48.144;14.118;2023-03-30T08:26:58;38.93;;;30.40;;
8331;SDS011;4203;48.144;14.118;2023-03-30T08:29:25;37.70;;;29.50;;
8331;SDS011;4203;48.144;14.118;2023-03-30T08:31:53;38.90;;;29.10;;
8331;SDS011;4203;48.144;14.118;2023-03-30T08:34:21;32.90;;;26.43;;
8331;SDS011;4203;48.144;14.118;2023-03-30T08:36:48;31.80;;;26.07;;
8331;SDS011;4203;48.144;14.118;2023-03-30T08:39:16;32.00;;;26.10;;
8331;SDS011;4203;48.144;14.118;2023-03-30T08:41:52;32.63;;;26.90;;
8331;SDS011;4203;48.144;14.118;2023-03-30T08:44:33;34.83;;;28.03;;
8331;SDS011;4203;48.144;14.118;2023-03-30T08:47:02;35.77;;;27.83;;
8331;SDS011;4203;48.144;14.118;2023-03-30T08:49:31;43.57;;;29.30;;
8331;SDS011;4203;48.144;14.118;2023-03-30T08:52:05;35.90;;;30.03;;
8331;SDS011;4203;48.144;14.118;2023-03-30T08:54:39;37.93;;;29.13;;
8331;SDS011;4203;48.144;14.118;2023-03-30T08:57:08;39.03;;;30.40;;
8331;SDS011;4203;48.144;14.118;2023-03-30T08:59:44;35.33;;;29.10;;
8331;SDS011;4203;48.144;14.118;2023-03-30T09:02:17;34.07;;;27.30;;
8331;SDS011;4203;48.144;14.118;2023-03-30T09:04:51;32.43;;;27.23;;
8331;SDS011;4203;48.144;14.118;2023-03-30T09:07:26;36.77;;;28.63;;
8331;SDS011;4203;48.144;14.118;2023-03-30T09:09:58;32.40;;;27.07;;
8331;SDS011;4203;48.144;14.118;2023-03-30T09:12:28;30.73;;;26.33;;
8331;SDS011;4203;48.144;14.118;2023-03-30T09:15:04;30.92;;;26.05;;
8331;SDS011;4203;48.144;14.118;2023-03-30T09:17:37;27.13;;;23.90;;
8331;SDS011;4203;48.144;14.118;2023-03-30T09:20:07;27.50;;;24.10;;
8331;SDS011;4203;48.144;14.118;2023-03-30T09:22:42;28.53;;;24.00;;
8331;SDS011;4203;48.144;14.118;2023-03-30T09:25:13;30.58;;;25.70;;
8331;SDS011;4203;48.144;14.118;2023-03-30T09:27:44;30.48;;;25.77;;
8331;SDS011;4203;48.144;14.118;2023-03-30T09:30:20;34.58;;;26.33;;
8331;SDS011;4203;48.144;14.118;2023-03-30T09:32:55;28.70;;;25.42;;
8331;SDS011;4203;48.144;14.118;2023-03-30T09:35:27;29.50;;;25.88;;
8331;SDS011;4203;48.144;14.118;2023-03-30T09:38:00;27.33;;;23.42;;
8331;SDS011;4203;48.144;14.118;2023-03-30T09:40:33;31.83;;;24.85;;
8331;SDS011;4203;48.144;14.118;2023-03-30T09:43:12;28.55;;;23.00;;
8331;SDS011;4203;48.144;14.118;2023-03-30T09:45:45;28.08;;;24.20;;
8331;SDS011;4203;48.144;14.118;2023-03-30T09:48:12;25.42;;;22.77;;
8331;SDS011;4203;48.144;14.118;2023-03-30T09:50:42;23.27;;;20.88;;
8331;SDS011;4203;48.144;14.118;2023-03-30T09:53:17;22.25;;;19.85;;
8331;SDS011;4203;48.144;14.118;2023-03-30T09:56:00;20.50;;;18.17;;
8331;SDS011;4203;48.144;14.118;2023-03-30T09:58:34;18.52;;;16.65;;
8331;SDS011;4203;48.144;14.118;2023-03-30T10:01:04;17.55;;;15.85;;
8331;SDS011;4203;48.144;14.118;2023-03-30T10:03:35;16.23;;;14.55;;
8331;SDS011;4203;48.144;14.118;2023-03-30T10:06:03;15.45;;;14.05;;
8331;SDS011;4203;48.144;14.118;2023-03-30T10:08:32;14.60;;;13.05;;
8331;SDS011;4203;48.144;14.118;2023-03-30T10:11:07;14.60;;;12.63;;
8331;SDS011;4203;48.144;14.118;2023-03-30T10:13:36;17.73;;;14.10;;
8331;SDS011;4203;48.144;14.118;2023-03-30T10:16:07;15.95;;;12.73;;
8331;SDS011;4203;48.144;14.118;2023-03-30T10:18:39;15.75;;;12.48;;
8331;SDS011;4203;48.144;14.118;2023-03-30T10:21:15;12.60;;;11.45;;
8331;SDS011;4203;48.144;14.118;2023-03-30T10:23:57;13.88;;;11.68;;
8331;SDS011;4203;48.144;14.118;2023-03-30T10:26:29;12.85;;;11.45;;
8331;SDS011;4203;48.144;14.118;2023-03-30T10:29:00;12.80;;;11.43;;
8331;SDS011;4203;48.144;14.118;2023-03-30T10:31:29;16.60;;;11.60;;
8331;SDS011;4203;48.144;14.118;2023-03-30T10:34:01;13.60;;;12.05;;
8331;SDS011;4203;48.144;14.118;2023-03-30T10:36:31;16.63;;;11.85;;
8331;SDS011;4203;48.144;14.118;2023-03-30T10:39:04;13.93;;;11.90;;
8331;SDS011;4203;48.144;14.118;2023-03-30T10:41:35;13.98;;;12.50;;
8331;SDS011;4203;48.144;14.118;2023-03-30T10:44:06;12.77;;;11.43;;
8331;SDS011;4203;48.144;14.118;2023-03-30T10:46:43;13.27;;;11.88;;
8331;SDS011;4203;48.144;14.118;2023-03-30T10:49:13;15.05;;;11.18;;
8331;SDS011;4203;48.144;14.118;2023-03-30T10:51:54;15.00;;;11.43;;
8331;SDS011;4203;48.144;14.118;2023-03-30T10:54:30;14.40;;;11.23;;
8331;SDS011;4203;48.144;14.118;2023-03-30T10:57:07;13.30;;;11.32;;
8331;SDS011;4203;48.144;14.118;2023-03-30T11:02:48;16.38;;;11.60;;
8331;SDS011;4203;48.144;14.118;2023-03-30T11:05:23;11.77;;;10.13;;
8331;SDS011;4203;48.144;14.118;2023-03-30T11:07:55;13.18;;;10.77;;
8331;SDS011;4203;48.144;14.118;2023-03-30T11:10:27;12.48;;;10.55;;
8331;SDS011;4203;48.144;14.118;2023-03-30T11:12:59;12.90;;;9.98;;
8331;SDS011;4203;48.144;14.118;2023-03-30T11:15:29;10.10;;;9.10;;
8331;SDS011;4203;48.144;14.118;2023-03-30T11:18:03;11.77;;;10.00;;
8331;SDS011;4203;48.144;14.118;2023-03-30T11:20:36;10.75;;;8.23;;
8331;SDS011;4203;48.144;14.118;2023-03-30T11:23:10;11.43;;;9.77;;
8331;SDS011;4203;48.144;14.118;2023-03-30T11:25:51;13.00;;;9.80;;
8331;SDS011;4203;48.144;14.118;2023-03-30T11:28:27;11.70;;;9.57;;
8331;SDS011;4203;48.144;14.118;2023-03-30T11:31:14;11.13;;;8.98;;
8331;SDS011;4203;48.144;14.118;2023-03-30T11:34:01;10.98;;;8.68;;
8331;SDS011;4203;48.144;14.118;2023-03-30T11:36:34;13.40;;;9.18;;
8331;SDS011;4203;48.144;14.118;2023-03-30T11:39:07;12.07;;;8.70;;
8331;SDS011;4203;48.144;14.118;2023-03-30T11:41:39;13.20;;;8.82;;
8331;SDS011;4203;48.144;14.118;2023-03-30T11:44:11;10.18;;;8.65;;
8331;SDS011;4203;48.144;14.118;2023-03-30T11:46:40;9.93;;;8.40;;
8331;SDS011;4203;48.144;14.118;2023-03-30T11:49:19;13.60;;;8.80;;
8331;SDS011;4203;48.144;14.118;2023-03-30T11:52:02;10.48;;;8.68;;
8331;SDS011;4203;48.144;14.118;2023-03-30T11:57:49;14.10;;;8.95;;
8331;SDS011;4203;48.144;14.118;2023-03-30T12:00:38;10.35;;;9.20;;
8331;SDS011;4203;48.144;14.118;2023-03-30T12:06:26;11.68;;;9.75;;
8331;SDS011;4203;48.144;14.118;2023-03-30T12:09:03;11.93;;;10.73;;
8331;SDS011;4203;48.144;14.118;2023-03-30T12:11:42;12.15;;;10.18;;
8331;SDS011;4203;48.144;14.118;2023-03-30T12:14:22;12.90;;;10.30;;
8331;SDS011;4203;48.144;14.118;2023-03-30T12:17:09;11.80;;;10.20;;
8331;SDS011;4203;48.144;14.118;2023-03-30T12:19:50;11.82;;;9.98;;
8331;SDS011;4203;48.144;14.118;2023-03-30T12:22:24;14.05;;;10.85;;
8331;SDS011;4203;48.144;14.118;2023-03-30T12:24:57;16.05;;;10.35;;
8331;SDS011;4203;48.144;14.118;2023-03-30T12:27:31;14.55;;;10.90;;
8331;SDS011;4203;48.144;14.118;2023-03-30T12:30:10;12.95;;;10.25;;
8331;SDS011;4203;48.144;14.118;2023-03-30T12:32:41;12.57;;;10.82;;
8331;SDS011;4203;48.144;14.118;2023-03-30T12:38:21;12.23;;;10.15;;
8331;SDS011;4203;48.144;14.118;2023-03-30T12:41:04;13.52;;;10.82;;
8331;SDS011;4203;48.144;14.118;2023-03-30T12:43:42;11.38;;;10.05;;
8331;SDS011;4203;48.144;14.118;2023-03-30T12:46:21;13.63;;;10.38;;
8331;SDS011;4203;48.144;14.118;2023-03-30T12:48:59;12.63;;;10.15;;
8331;SDS011;4203;48.144;14.118;2023-03-30T12:51:45;15.52;;;10.68;;
8331;SDS011;4203;48.144;14.118;2023-03-30T12:57:20;11.77;;;10.57;;
8331;SDS011;4203;48.144;14.118;2023-03-30T13:00:01;14.27;;;10.93;;
8331;SDS011;4203;48.144;14.118;2023-03-30T13:05:59;13.57;;;11.38;;
8331;SDS011;4203;48.144;14.118;2023-03-30T13:08:30;15.68;;;11.45;;
8331;SDS011;4203;48.144;14.118;2023-03-30T13:11:09;13.68;;;10.65;;
8331;SDS011;4203;48.144;14.118;2023-03-30T13:19:42;14.48;;;11.10;;
8331;SDS011;4203;48.144;14.118;2023-03-30T13:22:30;12.18;;;10.20;;
8331;SDS011;4203;48.144;14.118;2023-03-30T13:24:59;11.80;;;10.60;;
8331;SDS011;4203;48.144;14.118;2023-03-30T13:27:29;13.13;;;11.15;;
8331;SDS011;4203;48.144;14.118;2023-03-30T13:29:59;15.50;;;10.98;;
8331;SDS011;4203;48.144;14.118;2023-03-30T13:32:39;15.18;;;10.82;;
8331;SDS011;4203;48.144;14.118;2023-03-30T13:35:25;12.63;;;11.43;;
8331;SDS011;4203;48.144;14.118;2023-03-30T13:38:04;13.98;;;11.77;;
8331;SDS011;4203;48.144;14.118;2023-03-30T13:40:54;16.48;;;12.23;;
8331;SDS011;4203;48.144;14.118;2023-03-30T13:43:29;14.70;;;12.02;;
8331;SDS011;4203;48.144;14.118;2023-03-30T13:46:16;13.60;;;11.88;;
8331;SDS011;4203;48.144;14.118;2023-03-30T13:48:58;13.80;;;12.40;;
8331;SDS011;4203;48.144;14.118;2023-03-30T13:51:40;15.80;;;12.55;;
8331;SDS011;4203;48.144;14.118;2023-03-30T13:54:11;20.42;;;12.80;;
8331;SDS011;4203;48.144;14.118;2023-03-30T13:56:42;11.82;;;10.23;;
8331;SDS011;4203;48.144;14.118;2023-03-30T13:59:13;12.82;;;10.43;;
8331;SDS011;4203;48.144;14.118;2023-03-30T14:01:43;13.85;;;9.32;;
8331;SDS011;4203;48.144;14.118;2023-03-30T14:04:14;10.35;;;7.75;;
8331;SDS011;4203;48.144;14.118;2023-03-30T14:06:43;10.95;;;8.30;;
8331;SDS011;4203;48.144;14.118;2023-03-30T14:09:18;11.10;;;6.93;;
8331;SDS011;4203;48.144;14.118;2023-03-30T14:11:47;10.05;;;5.25;;
8331;SDS011;4203;48.144;14.118;2023-03-30T14:14:17;10.75;;;6.18;;
8331;SDS011;4203;48.144;14.118;2023-03-30T14:16:47;5.80;;;5.18;;
8331;SDS011;4203;48.144;14.118;2023-03-30T14:19:17;10.85;;;5.10;;
8331;SDS011;4203;48.144;14.118;2023-03-30T14:21:48;9.63;;;4.88;;
8331;SDS011;4203;48.144;14.118;2023-03-30T14:24:19;8.35;;;4.60;;
8331;SDS011;4203;48.144;14.118;2023-03-30T14:26:57;6.43;;;4.38;;
8331;SDS011;4203;48.144;14.118;2023-03-30T14:29:27;7.05;;;4.25;;
8331;SDS011;4203;48.144;14.118;2023-03-30T14:31:58;4.78;;;4.28;;
8331;SDS011;4203;48.144;14.118;2023-03-30T14:34:28;5.88;;;4.25;;
8331;SDS011;4203;48.144;14.118;2023-03-30T14:36:57;5.50;;;4.47;;
8331;SDS011;4203;48.144;14.118;2023-03-30T14:39:27;4.60;;;3.80;;
8331;SDS011;4203;48.144;14.118;2023-03-30T14:41:57;4.78;;;4.35;;
8331;SDS011;4203;48.144;14.118;2023-03-30T14:44:35;9.30;;;4.53;;
8331;SDS011;4203;48.144;14.118;2023-03-30T14:47:04;7.30;;;4.63;;
8331;SDS011;4203;48.144;14.118;2023-03-30T14:49:32;7.10;;;4.07;;
8331;SDS011;4203;48.144;14.118;2023-03-30T14:52:01;5.57;;;3.63;;
8331;SDS011;4203;48.144;14.118;2023-03-30T14:54:30;7.55;;;3.65;;
8331;SDS011;4203;48.144;14.118;2023-03-30T14:56:58;4.32;;;3.38;;
8331;SDS011;4203;48.144;14.118;2023-03-30T14:59:28;5.63;;;2.85;;
8331;SDS011;4203;48.144;14.118;2023-03-30T15:01:57;5.28;;;2.85;;
8331;SDS011;4203;48.144;14.118;2023-03-30T15:04:28;3.28;;;2.80;;
8331;SDS011;4203;48.144;14.118;2023-03-30T15:06:59;3.80;;;2.70;;
8331;SDS011;4203;48.144;14.118;2023-03-30T15:09:26;6.60;;;2.88;;
8331;SDS011;4203;48.144;14.118;2023-03-30T15:11:55;6.07;;;2.67;;
8331;SDS011;4203;48.144;14.118;2023-03-30T15:14:25;8.35;;;3.42;;
8331;SDS011;4203;48.144;14.118;2023-03-30T15:16:55;6.50;;;2.85;;
8331;SDS011;4203;48.144;14.118;2023-03-30T15:19:25;2.95;;;2.75;;
8331;SDS011;4203;48.144;14.118;2023-03-30T15:21:55;5.00;;;3.05;;
8331;SDS011;4203;48.144;14.118;2023-03-30T15:24:29;5.10;;;2.60;;
8331;SDS011;4203;48.144;14.118;2023-03-30T15:27:01;3.03;;;2.70;;
8331;SDS011;4203;48.144;14.118;2023-03-30T15:29:31;3.00;;;2.67;;
8331;SDS011;4203;48.144;14.118;2023-03-30T15:31:59;6.03;;;3.10;;
8331;SDS011;4203;48.144;14.118;2023-03-30T15:34:31;3.42;;;2.90;;
8331;SDS011;4203;48.144;14.118;2023-03-30T15:36:58;4.05;;;2.70;;
8331;SDS011;4203;48.144;14.118;2023-03-30T15:39:26;4.85;;;2.63;;